KEED/EED METAR and TAF weather

Enter ICAO airport designator
Station Type Date Time Source
KEED METAR 2019/12/14 05:56 UTC NOAA

KEED 140556Z AUTO 24007KT 10SM CLR 12/07 A2995 RMK AO2 SLP132 T01220067 10172 20122 58003


Station Type Date Time Source
KEED Decoded METAR 2019/12/14 05:56 UTC NOAA

NEEDLES AIRPORT, CA, United States (KEED) 34-46N 114-37W
Dec 14, 2019 - 12:56 AM EST / 2019.12.14 0556 UTC
Wind: from the WSW (240 degrees) at 8 MPH (7 KT):0
Visibility: 10 mile(s):0
Sky conditions: clear
Temperature: 54.0 F (12.2 C)
Dew Point: 44.1 F (6.7 C)
Relative Humidity: 69%
Pressure (altimeter): 29.95 in. Hg (1014 hPa)
Pressure tendency: 0.01 inches (0.3 hPa) lower than three hours ago
ob: KEED 140556Z AUTO 24007KT 10SM CLR 12/07 A2995 RMK AO2 SLP132 T01220067 10172 20122 58003
cycle: 6

Station Type Date Time Source
KEED TAF 2019/12/14 06:30 UTC NOAA

TAF KEED 140528Z 1406/1506 25006KT P6SM FEW150 BKN250
FM142000 21009KT P6SM BKN250
FM150300 24007KT P6SM OVC250

Example: see airport list